sensor_id;sensor_type;location;lat;lon;timestamp;P1;durP1;ratioP1;P2;durP2;ratioP2
64932;SDS011;51446;53.850;10.662;2023-05-10T00:01:12;7.40;;;3.20;;
64932;SDS011;51446;53.850;10.662;2023-05-10T00:03:38;7.38;;;2.97;;
64932;SDS011;51446;53.850;10.662;2023-05-10T00:06:03;4.47;;;3.10;;
64932;SDS011;51446;53.850;10.662;2023-05-10T00:08:28;7.37;;;3.37;;
64932;SDS011;51446;53.850;10.662;2023-05-10T00:10:54;5.17;;;3.90;;
64932;SDS011;51446;53.850;10.662;2023-05-10T00:13:19;7.67;;;3.43;;
64932;SDS011;51446;53.850;10.662;2023-05-10T00:15:44;3.40;;;2.90;;
64932;SDS011;51446;53.850;10.662;2023-05-10T00:18:09;4.50;;;3.20;;
64932;SDS011;51446;53.850;10.662;2023-05-10T00:20:35;7.30;;;2.90;;
64932;SDS011;51446;53.850;10.662;2023-05-10T00:23:00;5.17;;;2.67;;
64932;SDS011;51446;53.850;10.662;2023-05-10T00:25:25;4.57;;;3.10;;
64932;SDS011;51446;53.850;10.662;2023-05-10T00:27:51;6.90;;;3.45;;
64932;SDS011;51446;53.850;10.662;2023-05-10T00:30:16;3.88;;;2.75;;
64932;SDS011;51446;53.850;10.662;2023-05-10T00:32:42;5.73;;;3.20;;
64932;SDS011;51446;53.850;10.662;2023-05-10T00:35:08;6.00;;;3.00;;
64932;SDS011;51446;53.850;10.662;2023-05-10T00:37:33;4.53;;;2.97;;
64932;SDS011;51446;53.850;10.662;2023-05-10T00:39:58;3.77;;;3.00;;
64932;SDS011;51446;53.850;10.662;2023-05-10T00:42:24;8.37;;;2.90;;
64932;SDS011;51446;53.850;10.662;2023-05-10T00:44:49;4.57;;;3.17;;
64932;SDS011;51446;53.850;10.662;2023-05-10T00:47:15;7.00;;;3.10;;
64932;SDS011;51446;53.850;10.662;2023-05-10T00:49:41;5.35;;;3.00;;
64932;SDS011;51446;53.850;10.662;2023-05-10T00:52:07;6.40;;;2.78;;
64932;SDS011;51446;53.850;10.662;2023-05-10T00:54:33;4.28;;;3.20;;
64932;SDS011;51446;53.850;10.662;2023-05-10T00:56:58;6.20;;;2.70;;
64932;SDS011;51446;53.850;10.662;2023-05-10T00:59:24;7.78;;;3.25;;
64932;SDS011;51446;53.850;10.662;2023-05-10T01:01:49;5.15;;;3.40;;
64932;SDS011;51446;53.850;10.662;2023-05-10T01:04:16;8.93;;;3.60;;
64932;SDS011;51446;53.850;10.662;2023-05-10T01:06:41;8.40;;;3.42;;
64932;SDS011;51446;53.850;10.662;2023-05-10T01:09:07;7.13;;;3.00;;
64932;SDS011;51446;53.850;10.662;2023-05-10T01:11:35;8.87;;;3.20;;
64932;SDS011;51446;53.850;10.662;2023-05-10T01:14:02;6.15;;;3.22;;
64932;SDS011;51446;53.850;10.662;2023-05-10T01:16:29;5.30;;;3.47;;
64932;SDS011;51446;53.850;10.662;2023-05-10T01:18:57;5.75;;;3.33;;
64932;SDS011;51446;53.850;10.662;2023-05-10T01:21:33;5.83;;;3.10;;
64932;SDS011;51446;53.850;10.662;2023-05-10T01:24:15;6.00;;;3.17;;
64932;SDS011;51446;53.850;10.662;2023-05-10T01:27:13;11.85;;;3.97;;
64932;SDS011;51446;53.850;10.662;2023-05-10T01:32:52;7.45;;;3.10;;
64932;SDS011;51446;53.850;10.662;2023-05-10T01:35:29;4.17;;;3.20;;
64932;SDS011;51446;53.850;10.662;2023-05-10T01:40:55;11.25;;;3.88;;
64932;SDS011;51446;53.850;10.662;2023-05-10T01:43:36;7.32;;;2.90;;
64932;SDS011;51446;53.850;10.662;2023-05-10T01:46:09;10.40;;;3.00;;
64932;SDS011;51446;53.850;10.662;2023-05-10T01:48:57;4.60;;;3.00;;
64932;SDS011;51446;53.850;10.662;2023-05-10T01:51:26;7.22;;;3.35;;
64932;SDS011;51446;53.850;10.662;2023-05-10T01:53:58;8.82;;;3.80;;
64932;SDS011;51446;53.850;10.662;2023-05-10T01:56:28;3.80;;;3.20;;
64932;SDS011;51446;53.850;10.662;2023-05-10T01:58:55;4.30;;;3.20;;
64932;SDS011;51446;53.850;10.662;2023-05-10T02:01:22;5.13;;;3.13;;
64932;SDS011;51446;53.850;10.662;2023-05-10T02:03:49;7.35;;;3.20;;
64932;SDS011;51446;53.850;10.662;2023-05-10T02:06:16;7.30;;;3.35;;
64932;SDS011;51446;53.850;10.662;2023-05-10T02:08:44;4.03;;;3.10;;
64932;SDS011;51446;53.850;10.662;2023-05-10T02:11:12;4.20;;;3.50;;
64932;SDS011;51446;53.850;10.662;2023-05-10T02:13:38;5.60;;;3.90;;
64932;SDS011;51446;53.850;10.662;2023-05-10T02:16:05;5.07;;;3.70;;
64932;SDS011;51446;53.850;10.662;2023-05-10T02:18:30;5.82;;;3.92;;
64932;SDS011;51446;53.850;10.662;2023-05-10T02:20:57;6.90;;;3.60;;
64932;SDS011;51446;53.850;10.662;2023-05-10T02:23:23;5.37;;;3.40;;
64932;SDS011;51446;53.850;10.662;2023-05-10T02:25:50;6.20;;;3.50;;
64932;SDS011;51446;53.850;10.662;2023-05-10T02:28:18;4.70;;;3.25;;
64932;SDS011;51446;53.850;10.662;2023-05-10T02:30:44;6.57;;;3.78;;
64932;SDS011;51446;53.850;10.662;2023-05-10T02:33:12;5.93;;;3.38;;
64932;SDS011;51446;53.850;10.662;2023-05-10T02:35:38;4.57;;;3.42;;
64932;SDS011;51446;53.850;10.662;2023-05-10T02:38:04;11.88;;;3.92;;
64932;SDS011;51446;53.850;10.662;2023-05-10T02:40:32;4.95;;;3.38;;
64932;SDS011;51446;53.850;10.662;2023-05-10T02:42:58;4.70;;;4.00;;
64932;SDS011;51446;53.850;10.662;2023-05-10T02:45:27;7.22;;;3.53;;
64932;SDS011;51446;53.850;10.662;2023-05-10T02:47:55;7.85;;;4.03;;
64932;SDS011;51446;53.850;10.662;2023-05-10T02:50:21;4.90;;;3.72;;
64932;SDS011;51446;53.850;10.662;2023-05-10T02:52:50;5.00;;;4.45;;
64932;SDS011;51446;53.850;10.662;2023-05-10T02:55:17;5.93;;;3.67;;
64932;SDS011;51446;53.850;10.662;2023-05-10T02:57:48;4.10;;;3.60;;
64932;SDS011;51446;53.850;10.662;2023-05-10T03:00:16;4.28;;;3.60;;
64932;SDS011;51446;53.850;10.662;2023-05-10T03:02:42;4.88;;;3.83;;
64932;SDS011;51446;53.850;10.662;2023-05-10T03:05:07;4.05;;;3.65;;
64932;SDS011;51446;53.850;10.662;2023-05-10T03:07:33;6.50;;;3.63;;
64932;SDS011;51446;53.850;10.662;2023-05-10T03:09:58;10.17;;;4.03;;
64932;SDS011;51446;53.850;10.662;2023-05-10T03:15:13;4.32;;;3.78;;
64932;SDS011;51446;53.850;10.662;2023-05-10T03:18:59;6.43;;;3.83;;
64932;SDS011;51446;53.850;10.662;2023-05-10T03:20:59;7.68;;;3.88;;
64932;SDS011;51446;53.850;10.662;2023-05-10T03:23:33;6.82;;;3.60;;
64932;SDS011;51446;53.850;10.662;2023-05-10T03:26:00;5.28;;;3.85;;
64932;SDS011;51446;53.850;10.662;2023-05-10T03:28:26;5.82;;;3.92;;
64932;SDS011;51446;53.850;10.662;2023-05-10T03:30:53;5.60;;;3.95;;
64932;SDS011;51446;53.850;10.662;2023-05-10T03:33:19;5.70;;;4.20;;
64932;SDS011;51446;53.850;10.662;2023-05-10T03:35:45;4.38;;;3.88;;
64932;SDS011;51446;53.850;10.662;2023-05-10T03:38:11;6.65;;;3.92;;
64932;SDS011;51446;53.850;10.662;2023-05-10T03:40:37;5.10;;;3.73;;
64932;SDS011;51446;53.850;10.662;2023-05-10T03:43:02;5.47;;;4.28;;
64932;SDS011;51446;53.850;10.662;2023-05-10T03:45:28;5.47;;;4.00;;
64932;SDS011;51446;53.850;10.662;2023-05-10T03:47:53;4.87;;;3.93;;
64932;SDS011;51446;53.850;10.662;2023-05-10T03:50:19;4.82;;;4.10;;
64932;SDS011;51446;53.850;10.662;2023-05-10T03:52:44;4.73;;;3.90;;
64932;SDS011;51446;53.850;10.662;2023-05-10T03:55:10;6.93;;;4.00;;
64932;SDS011;51446;53.850;10.662;2023-05-10T03:57:35;5.88;;;4.28;;
64932;SDS011;51446;53.850;10.662;2023-05-10T04:00:00;4.43;;;3.70;;
64932;SDS011;51446;53.850;10.662;2023-05-10T04:02:26;6.43;;;4.00;;
64932;SDS011;51446;53.850;10.662;2023-05-10T04:04:51;6.57;;;4.37;;
64932;SDS011;51446;53.850;10.662;2023-05-10T04:07:16;5.63;;;4.20;;
64932;SDS011;51446;53.850;10.662;2023-05-10T04:09:42;6.07;;;3.97;;
64932;SDS011;51446;53.850;10.662;2023-05-10T04:12:08;5.80;;;4.10;;
64932;SDS011;51446;53.850;10.662;2023-05-10T04:14:33;4.73;;;4.00;;
64932;SDS011;51446;53.850;10.662;2023-05-10T04:16:59;7.85;;;4.03;;
64932;SDS011;51446;53.850;10.662;2023-05-10T04:19:28;4.82;;;3.83;;
64932;SDS011;51446;53.850;10.662;2023-05-10T04:21:54;5.97;;;4.10;;
64932;SDS011;51446;53.850;10.662;2023-05-10T04:24:19;6.43;;;4.00;;
64932;SDS011;51446;53.850;10.662;2023-05-10T04:26:44;5.07;;;3.60;;
64932;SDS011;51446;53.850;10.662;2023-05-10T04:29:10;7.70;;;4.10;;
64932;SDS011;51446;53.850;10.662;2023-05-10T04:31:35;5.83;;;3.60;;
64932;SDS011;51446;53.850;10.662;2023-05-10T04:34:01;7.03;;;4.50;;
64932;SDS011;51446;53.850;10.662;2023-05-10T04:36:26;6.38;;;3.88;;
64932;SDS011;51446;53.850;10.662;2023-05-10T04:38:52;7.10;;;4.00;;
64932;SDS011;51446;53.850;10.662;2023-05-10T04:41:17;6.47;;;4.30;;
64932;SDS011;51446;53.850;10.662;2023-05-10T04:43:43;4.63;;;3.87;;
64932;SDS011;51446;53.850;10.662;2023-05-10T04:46:08;4.95;;;3.67;;
64932;SDS011;51446;53.850;10.662;2023-05-10T04:48:33;5.45;;;4.15;;
64932;SDS011;51446;53.850;10.662;2023-05-10T04:50:58;6.78;;;4.32;;
64932;SDS011;51446;53.850;10.662;2023-05-10T04:53:24;5.27;;;3.93;;
64932;SDS011;51446;53.850;10.662;2023-05-10T04:55:49;5.37;;;3.67;;
64932;SDS011;51446;53.850;10.662;2023-05-10T04:58:15;5.67;;;3.83;;
64932;SDS011;51446;53.850;10.662;2023-05-10T05:00:40;5.47;;;3.80;;
64932;SDS011;51446;53.850;10.662;2023-05-10T05:03:06;5.10;;;4.38;;
64932;SDS011;51446;53.850;10.662;2023-05-10T05:05:31;5.20;;;4.37;;
64932;SDS011;51446;53.850;10.662;2023-05-10T05:07:57;4.20;;;3.80;;
64932;SDS011;51446;53.850;10.662;2023-05-10T05:10:22;6.40;;;3.90;;
64932;SDS011;51446;53.850;10.662;2023-05-10T05:12:47;7.07;;;4.40;;
64932;SDS011;51446;53.850;10.662;2023-05-10T05:15:12;6.57;;;3.97;;
64932;SDS011;51446;53.850;10.662;2023-05-10T05:17:38;8.03;;;3.80;;
64932;SDS011;51446;53.850;10.662;2023-05-10T05:20:03;5.88;;;4.20;;
64932;SDS011;51446;53.850;10.662;2023-05-10T05:22:29;6.10;;;4.07;;
64932;SDS011;51446;53.850;10.662;2023-05-10T05:24:54;6.10;;;3.83;;
64932;SDS011;51446;53.850;10.662;2023-05-10T05:27:20;5.40;;;3.67;;
64932;SDS011;51446;53.850;10.662;2023-05-10T05:29:49;8.30;;;4.38;;
64932;SDS011;51446;53.850;10.662;2023-05-10T05:32:16;8.10;;;4.10;;
64932;SDS011;51446;53.850;10.662;2023-05-10T05:34:41;5.43;;;3.60;;
64932;SDS011;51446;53.850;10.662;2023-05-10T05:37:06;4.47;;;3.80;;
64932;SDS011;51446;53.850;10.662;2023-05-10T05:39:31;7.00;;;4.40;;
64932;SDS011;51446;53.850;10.662;2023-05-10T05:41:56;8.27;;;3.87;;
64932;SDS011;51446;53.850;10.662;2023-05-10T05:44:23;5.47;;;4.10;;
64932;SDS011;51446;53.850;10.662;2023-05-10T05:46:48;7.57;;;4.30;;
64932;SDS011;51446;53.850;10.662;2023-05-10T05:49:13;5.67;;;3.90;;
64932;SDS011;51446;53.850;10.662;2023-05-10T05:51:39;6.83;;;3.77;;
64932;SDS011;51446;53.850;10.662;2023-05-10T05:54:04;5.00;;;3.50;;
64932;SDS011;51446;53.850;10.662;2023-05-10T05:56:29;4.47;;;4.00;;
64932;SDS011;51446;53.850;10.662;2023-05-10T05:58:55;7.00;;;4.20;;
64932;SDS011;51446;53.850;10.662;2023-05-10T06:01:20;5.50;;;4.07;;
64932;SDS011;51446;53.850;10.662;2023-05-10T06:03:46;4.40;;;3.77;;
64932;SDS011;51446;53.850;10.662;2023-05-10T06:06:11;7.78;;;4.13;;
64932;SDS011;51446;53.850;10.662;2023-05-10T06:08:37;7.83;;;3.87;;
64932;SDS011;51446;53.850;10.662;2023-05-10T06:11:02;6.07;;;4.00;;
64932;SDS011;51446;53.850;10.662;2023-05-10T06:13:29;5.13;;;3.63;;
64932;SDS011;51446;53.850;10.662;2023-05-10T06:15:57;9.57;;;3.75;;
64932;SDS011;51446;53.850;10.662;2023-05-10T06:18:23;7.45;;;3.40;;
64932;SDS011;51446;53.850;10.662;2023-05-10T06:20:49;4.47;;;3.40;;
64932;SDS011;51446;53.850;10.662;2023-05-10T06:23:14;4.28;;;3.60;;
64932;SDS011;51446;53.850;10.662;2023-05-10T06:25:39;4.80;;;3.40;;
64932;SDS011;51446;53.850;10.662;2023-05-10T06:28:05;7.90;;;4.03;;
64932;SDS011;51446;53.850;10.662;2023-05-10T06:30:30;19.00;;;4.10;;
64932;SDS011;51446;53.850;10.662;2023-05-10T06:32:56;8.47;;;3.70;;
64932;SDS011;51446;53.850;10.662;2023-05-10T06:35:21;8.33;;;3.70;;
64932;SDS011;51446;53.850;10.662;2023-05-10T06:37:46;5.70;;;4.20;;
64932;SDS011;51446;53.850;10.662;2023-05-10T06:40:11;6.53;;;3.57;;
64932;SDS011;51446;53.850;10.662;2023-05-10T06:42:37;5.90;;;3.60;;
64932;SDS011;51446;53.850;10.662;2023-05-10T06:45:02;4.27;;;3.07;;
64932;SDS011;51446;53.850;10.662;2023-05-10T06:47:28;7.65;;;3.75;;
64932;SDS011;51446;53.850;10.662;2023-05-10T06:49:53;7.80;;;3.40;;
64932;SDS011;51446;53.850;10.662;2023-05-10T06:52:19;5.13;;;3.10;;
64932;SDS011;51446;53.850;10.662;2023-05-10T06:54:44;8.30;;;3.33;;
64932;SDS011;51446;53.850;10.662;2023-05-10T06:57:09;8.30;;;3.60;;
64932;SDS011;51446;53.850;10.662;2023-05-10T06:59:34;4.47;;;3.30;;
64932;SDS011;51446;53.850;10.662;2023-05-10T07:02:01;7.55;;;3.40;;
64932;SDS011;51446;53.850;10.662;2023-05-10T07:04:26;4.83;;;3.10;;
64932;SDS011;51446;53.850;10.662;2023-05-10T07:06:51;5.27;;;3.17;;
64932;SDS011;51446;53.850;10.662;2023-05-10T07:09:17;6.03;;;3.20;;
64932;SDS011;51446;53.850;10.662;2023-05-10T07:11:42;6.00;;;3.60;;
64932;SDS011;51446;53.850;10.662;2023-05-10T07:14:07;5.57;;;3.23;;
64932;SDS011;51446;53.850;10.662;2023-05-10T07:16:32;4.47;;;3.37;;
64932;SDS011;51446;53.850;10.662;2023-05-10T07:18:58;6.77;;;3.37;;
64932;SDS011;51446;53.850;10.662;2023-05-10T07:21:23;7.57;;;3.60;;
64932;SDS011;51446;53.850;10.662;2023-05-10T07:23:53;4.90;;;3.50;;
64932;SDS011;51446;53.850;10.662;2023-05-10T07:26:18;3.60;;;3.17;;
64932;SDS011;51446;53.850;10.662;2023-05-10T07:28:44;5.77;;;3.63;;
64932;SDS011;51446;53.850;10.662;2023-05-10T07:31:09;7.20;;;3.30;;
64932;SDS011;51446;53.850;10.662;2023-05-10T07:33:34;5.60;;;3.40;;
64932;SDS011;51446;53.850;10.662;2023-05-10T07:36:00;3.70;;;3.20;;
64932;SDS011;51446;53.850;10.662;2023-05-10T07:38:25;3.93;;;3.27;;
64932;SDS011;51446;53.850;10.662;2023-05-10T07:40:50;3.70;;;2.77;;
64932;SDS011;51446;53.850;10.662;2023-05-10T07:43:16;4.27;;;3.10;;
64932;SDS011;51446;53.850;10.662;2023-05-10T07:45:41;5.50;;;3.10;;
64932;SDS011;51446;53.850;10.662;2023-05-10T07:48:06;5.00;;;3.03;;
64932;SDS011;51446;53.850;10.662;2023-05-10T07:50:32;5.97;;;3.10;;
64932;SDS011;51446;53.850;10.662;2023-05-10T07:52:57;4.20;;;3.37;;
64932;SDS011;51446;53.850;10.662;2023-05-10T07:55:22;5.03;;;3.10;;
64932;SDS011;51446;53.850;10.662;2023-05-10T07:57:47;9.47;;;3.10;;
64932;SDS011;51446;53.850;10.662;2023-05-10T08:00:13;8.47;;;3.37;;
64932;SDS011;51446;53.850;10.662;2023-05-10T08:02:42;6.67;;;3.00;;
64932;SDS011;51446;53.850;10.662;2023-05-10T08:05:08;6.90;;;3.33;;
64932;SDS011;51446;53.850;10.662;2023-05-10T08:07:33;7.07;;;3.47;;
64932;SDS011;51446;53.850;10.662;2023-05-10T08:09:58;4.73;;;3.03;;
64932;SDS011;51446;53.850;10.662;2023-05-10T08:12:24;5.23;;;3.40;;
64932;SDS011;51446;53.850;10.662;2023-05-10T08:14:49;5.37;;;3.70;;
64932;SDS011;51446;53.850;10.662;2023-05-10T08:17:14;6.57;;;2.90;;
64932;SDS011;51446;53.850;10.662;2023-05-10T08:19:39;4.00;;;3.33;;
64932;SDS011;51446;53.850;10.662;2023-05-10T08:22:05;5.80;;;3.20;;
64932;SDS011;51446;53.850;10.662;2023-05-10T08:24:30;6.73;;;3.43;;
64932;SDS011;51446;53.850;10.662;2023-05-10T08:26:55;8.43;;;3.27;;
64932;SDS011;51446;53.850;10.662;2023-05-10T08:29:21;12.47;;;3.70;;
64932;SDS011;51446;53.850;10.662;2023-05-10T08:31:46;3.73;;;3.13;;
64932;SDS011;51446;53.850;10.662;2023-05-10T08:34:11;4.90;;;3.17;;
64932;SDS011;51446;53.850;10.662;2023-05-10T08:36:36;4.97;;;2.97;;
64932;SDS011;51446;53.850;10.662;2023-05-10T08:39:02;3.97;;;3.17;;
64932;SDS011;51446;53.850;10.662;2023-05-10T08:41:27;5.63;;;3.43;;
64932;SDS011;51446;53.850;10.662;2023-05-10T08:43:55;4.90;;;3.10;;
64932;SDS011;51446;53.850;10.662;2023-05-10T08:46:21;5.67;;;3.00;;
64932;SDS011;51446;53.850;10.662;2023-05-10T08:48:48;7.82;;;3.17;;
64932;SDS011;51446;53.850;10.662;2023-05-10T08:51:15;4.78;;;3.33;;
64932;SDS011;51446;53.850;10.662;2023-05-10T08:53:43;5.72;;;3.22;;
64932;SDS011;51446;53.850;10.662;2023-05-10T08:56:08;4.97;;;3.27;;
64932;SDS011;51446;53.850;10.662;2023-05-10T08:58:34;6.45;;;3.10;;
64932;SDS011;51446;53.850;10.662;2023-05-10T09:00:59;4.77;;;2.70;;
64932;SDS011;51446;53.850;10.662;2023-05-10T09:03:25;6.93;;;3.37;;
64932;SDS011;51446;53.850;10.662;2023-05-10T09:05:51;10.30;;;3.40;;
64932;SDS011;51446;53.850;10.662;2023-05-10T09:08:17;4.50;;;3.60;;
64932;SDS011;51446;53.850;10.662;2023-05-10T09:10:43;4.60;;;3.37;;
64932;SDS011;51446;53.850;10.662;2023-05-10T09:13:09;7.47;;;3.30;;
64932;SDS011;51446;53.850;10.662;2023-05-10T09:15:36;5.43;;;3.20;;
64932;SDS011;51446;53.850;10.662;2023-05-10T09:18:01;13.33;;;3.70;;
64932;SDS011;51446;53.850;10.662;2023-05-10T09:20:27;6.33;;;3.40;;
64932;SDS011;51446;53.850;10.662;2023-05-10T09:22:53;5.50;;;3.40;;
64932;SDS011;51446;53.850;10.662;2023-05-10T09:25:18;6.60;;;3.73;;
64932;SDS011;51446;53.850;10.662;2023-05-10T09:27:45;6.07;;;3.75;;
64932;SDS011;51446;53.850;10.662;2023-05-10T09:30:28;3.33;;;3.00;;
64932;SDS011;51446;53.850;10.662;2023-05-10T09:32:55;4.70;;;3.30;;
64932;SDS011;51446;53.850;10.662;2023-05-10T09:35:22;3.57;;;3.17;;
64932;SDS011;51446;53.850;10.662;2023-05-10T09:37:53;4.95;;;3.50;;
64932;SDS011;51446;53.850;10.662;2023-05-10T09:40:21;8.70;;;3.30;;
64932;SDS011;51446;53.850;10.662;2023-05-10T09:42:56;6.07;;;3.25;;
64932;SDS011;51446;53.850;10.662;2023-05-10T09:45:34;5.00;;;3.20;;
64932;SDS011;51446;53.850;10.662;2023-05-10T09:48:00;8.80;;;3.47;;
64932;SDS011;51446;53.850;10.662;2023-05-10T09:50:27;6.68;;;3.50;;
64932;SDS011;51446;53.850;10.662;2023-05-10T09:52:54;9.55;;;3.90;;
64932;SDS011;51446;53.850;10.662;2023-05-10T09:55:25;9.32;;;3.38;;
64932;SDS011;51446;53.850;10.662;2023-05-10T09:57:58;5.18;;;3.35;;
64932;SDS011;51446;53.850;10.662;2023-05-10T10:00:24;4.27;;;3.20;;
64932;SDS011;51446;53.850;10.662;2023-05-10T10:02:55;4.30;;;2.88;;
64932;SDS011;51446;53.850;10.662;2023-05-10T10:05:27;4.45;;;3.58;;
64932;SDS011;51446;53.850;10.662;2023-05-10T10:08:05;9.10;;;3.75;;
64932;SDS011;51446;53.850;10.662;2023-05-10T10:10:31;4.53;;;3.38;;
64932;SDS011;51446;53.850;10.662;2023-05-10T10:12:57;4.20;;;3.20;;
64932;SDS011;51446;53.850;10.662;2023-05-10T10:15:23;4.10;;;3.20;;
64932;SDS011;51446;53.850;10.662;2023-05-10T10:17:51;5.20;;;3.30;;
64932;SDS011;51446;53.850;10.662;2023-05-10T10:20:18;4.47;;;3.37;;
64932;SDS011;51446;53.850;10.662;2023-05-10T10:22:44;4.78;;;3.42;;
64932;SDS011;51446;53.850;10.662;2023-05-10T10:25:11;6.70;;;3.58;;
64932;SDS011;51446;53.850;10.662;2023-05-10T10:30:24;4.82;;;3.72;;
64932;SDS011;51446;53.850;10.662;2023-05-10T10:35:31;5.28;;;3.60;;
64932;SDS011;51446;53.850;10.662;2023-05-10T10:37:57;5.50;;;3.92;;
64932;SDS011;51446;53.850;10.662;2023-05-10T10:40:32;5.37;;;3.70;;
64932;SDS011;51446;53.850;10.662;2023-05-10T10:43:20;7.93;;;3.90;;
64932;SDS011;51446;53.850;10.662;2023-05-10T10:48:49;9.10;;;3.63;;
64932;SDS011;51446;53.850;10.662;2023-05-10T10:51:17;5.57;;;3.83;;
64932;SDS011;51446;53.850;10.662;2023-05-10T10:53:42;5.50;;;3.50;;
64932;SDS011;51446;53.850;10.662;2023-05-10T10:56:08;4.13;;;3.40;;
64932;SDS011;51446;53.850;10.662;2023-05-10T10:58:37;5.72;;;3.55;;
64932;SDS011;51446;53.850;10.662;2023-05-10T11:01:13;4.90;;;3.40;;
64932;SDS011;51446;53.850;10.662;2023-05-10T11:04:16;6.65;;;3.88;;
64932;SDS011;51446;53.850;10.662;2023-05-10T11:06:43;6.13;;;3.20;;
64932;SDS011;51446;53.850;10.662;2023-05-10T11:09:09;3.90;;;3.50;;
64932;SDS011;51446;53.850;10.662;2023-05-10T11:11:36;4.50;;;3.67;;
64932;SDS011;51446;53.850;10.662;2023-05-10T11:14:13;7.18;;;3.80;;
64932;SDS011;51446;53.850;10.662;2023-05-10T11:16:42;6.03;;;3.50;;
64932;SDS011;51446;53.850;10.662;2023-05-10T11:19:09;7.07;;;3.90;;
64932;SDS011;51446;53.850;10.662;2023-05-10T11:21:49;5.90;;;3.90;;
64932;SDS011;51446;53.850;10.662;2023-05-10T11:24:16;6.57;;;3.50;;
64932;SDS011;51446;53.850;10.662;2023-05-10T11:26:43;4.13;;;3.43;;
64932;SDS011;51446;53.850;10.662;2023-05-10T11:29:08;5.68;;;3.70;;
64932;SDS011;51446;53.850;10.662;2023-05-10T11:31:34;6.73;;;3.40;;
64932;SDS011;51446;53.850;10.662;2023-05-10T11:34:00;5.25;;;3.55;;
64932;SDS011;51446;53.850;10.662;2023-05-10T11:36:32;5.03;;;3.90;;
64932;SDS011;51446;53.850;10.662;2023-05-10T11:38:58;5.85;;;3.58;;
64932;SDS011;51446;53.850;10.662;2023-05-10T11:41:24;5.10;;;3.67;;
64932;SDS011;51446;53.850;10.662;2023-05-10T11:43:54;5.20;;;3.80;;
64932;SDS011;51446;53.850;10.662;2023-05-10T11:46:21;5.03;;;3.40;;
64932;SDS011;51446;53.850;10.662;2023-05-10T11:48:52;5.20;;;3.65;;
64932;SDS011;51446;53.850;10.662;2023-05-10T11:51:21;3.67;;;3.17;;
64932;SDS011;51446;53.850;10.662;2023-05-10T11:53:48;5.10;;;3.70;;
64932;SDS011;51446;53.850;10.662;2023-05-10T11:56:15;6.63;;;3.60;;
64932;SDS011;51446;53.850;10.662;2023-05-10T11:58:40;4.67;;;3.40;;
64932;SDS011;51446;53.850;10.662;2023-05-10T12:01:06;5.23;;;3.00;;
64932;SDS011;51446;53.850;10.662;2023-05-10T12:03:33;4.70;;;3.47;;
64932;SDS011;51446;53.850;10.662;2023-05-10T12:05:59;3.83;;;3.42;;
64932;SDS011;51446;53.850;10.662;2023-05-10T12:08:26;4.47;;;3.70;;
64932;SDS011;51446;53.850;10.662;2023-05-10T12:11:09;5.45;;;3.40;;
64932;SDS011;51446;53.850;10.662;2023-05-10T12:13:38;5.90;;;3.40;;
64932;SDS011;51446;53.850;10.662;2023-05-10T12:16:18;6.00;;;3.58;;
64932;SDS011;51446;53.850;10.662;2023-05-10T12:18:48;9.48;;;3.45;;
64932;SDS011;51446;53.850;10.662;2023-05-10T12:21:14;5.90;;;3.47;;
64932;SDS011;51446;53.850;10.662;2023-05-10T12:23:40;5.75;;;3.50;;
64932;SDS011;51446;53.850;10.662;2023-05-10T12:26:06;7.23;;;3.70;;
64932;SDS011;51446;53.850;10.662;2023-05-10T12:28:31;6.47;;;3.73;;
64932;SDS011;51446;53.850;10.662;2023-05-10T12:30:57;6.95;;;4.05;;
64932;SDS011;51446;53.850;10.662;2023-05-10T12:33:24;5.95;;;4.30;;
64932;SDS011;51446;53.850;10.662;2023-05-10T12:35:50;7.73;;;4.40;;
64932;SDS011;51446;53.850;10.662;2023-05-10T12:41:01;6.50;;;4.75;;
64932;SDS011;51446;53.850;10.662;2023-05-10T12:43:28;6.63;;;4.25;;
64932;SDS011;51446;53.850;10.662;2023-05-10T12:45:57;7.38;;;4.57;;
64932;SDS011;51446;53.850;10.662;2023-05-10T12:48:22;7.67;;;4.97;;
64932;SDS011;51446;53.850;10.662;2023-05-10T12:50:47;7.67;;;5.23;;
64932;SDS011;51446;53.850;10.662;2023-05-10T12:53:13;8.43;;;5.07;;
64932;SDS011;51446;53.850;10.662;2023-05-10T12:55:40;6.15;;;5.05;;
64932;SDS011;51446;53.850;10.662;2023-05-10T12:58:09;8.95;;;5.68;;
64932;SDS011;51446;53.850;10.662;2023-05-10T13:00:34;6.63;;;5.50;;
64932;SDS011;51446;53.850;10.662;2023-05-10T13:03:00;8.23;;;6.30;;
64932;SDS011;51446;53.850;10.662;2023-05-10T13:05:25;8.47;;;6.20;;
64932;SDS011;51446;53.850;10.662;2023-05-10T13:07:50;8.60;;;6.67;;
64932;SDS011;51446;53.850;10.662;2023-05-10T13:10:16;8.80;;;6.03;;
64932;SDS011;51446;53.850;10.662;2023-05-10T13:12:41;8.10;;;6.53;;
64932;SDS011;51446;53.850;10.662;2023-05-10T13:15:06;6.93;;;5.77;;
64932;SDS011;51446;53.850;10.662;2023-05-10T13:17:32;8.65;;;6.25;;
64932;SDS011;51446;53.850;10.662;2023-05-10T13:19:57;7.37;;;6.23;;
64932;SDS011;51446;53.850;10.662;2023-05-10T13:22:23;10.03;;;5.97;;
64932;SDS011;51446;53.850;10.662;2023-05-10T13:24:48;8.10;;;6.30;;
64932;SDS011;51446;53.850;10.662;2023-05-10T13:27:13;10.33;;;6.43;;
64932;SDS011;51446;53.850;10.662;2023-05-10T13:29:38;8.20;;;6.50;;
64932;SDS011;51446;53.850;10.662;2023-05-10T13:32:04;8.67;;;7.10;;
64932;SDS011;51446;53.850;10.662;2023-05-10T13:34:29;10.68;;;6.57;;
64932;SDS011;51446;53.850;10.662;2023-05-10T13:36:55;9.33;;;6.57;;
64932;SDS011;51446;53.850;10.662;2023-05-10T13:39:21;11.23;;;6.80;;
64932;SDS011;51446;53.850;10.662;2023-05-10T13:41:46;8.63;;;6.93;;
64932;SDS011;51446;53.850;10.662;2023-05-10T13:44:12;8.07;;;6.43;;
64932;SDS011;51446;53.850;10.662;2023-05-10T13:46:39;10.45;;;6.95;;
64932;SDS011;51446;53.850;10.662;2023-05-10T13:49:04;8.93;;;7.00;;
64932;SDS011;51446;53.850;10.662;2023-05-10T13:51:30;8.37;;;6.97;;
64932;SDS011;51446;53.850;10.662;2023-05-10T13:53:56;10.00;;;7.18;;
64932;SDS011;51446;53.850;10.662;2023-05-10T13:56:22;7.90;;;6.93;;
64932;SDS011;51446;53.850;10.662;2023-05-10T13:58:47;12.17;;;7.13;;
64932;SDS011;51446;53.850;10.662;2023-05-10T14:01:13;12.00;;;7.40;;
64932;SDS011;51446;53.850;10.662;2023-05-10T14:03:38;9.10;;;7.07;;
64932;SDS011;51446;53.850;10.662;2023-05-10T14:06:03;11.40;;;7.27;;
64932;SDS011;51446;53.850;10.662;2023-05-10T14:08:28;11.23;;;6.93;;
64932;SDS011;51446;53.850;10.662;2023-05-10T14:10:54;10.87;;;7.77;;
64932;SDS011;51446;53.850;10.662;2023-05-10T14:13:21;8.65;;;7.00;;
64932;SDS011;51446;53.850;10.662;2023-05-10T14:15:46;8.27;;;7.00;;
64932;SDS011;51446;53.850;10.662;2023-05-10T14:18:11;9.30;;;6.90;;
64932;SDS011;51446;53.850;10.662;2023-05-10T14:20:36;12.40;;;7.33;;
64932;SDS011;51446;53.850;10.662;2023-05-10T14:23:02;8.33;;;6.63;;
64932;SDS011;51446;53.850;10.662;2023-05-10T14:25:27;8.77;;;7.10;;
64932;SDS011;51446;53.850;10.662;2023-05-10T14:27:52;10.83;;;7.00;;
64932;SDS011;51446;53.850;10.662;2023-05-10T14:30:19;9.52;;;6.70;;
64932;SDS011;51446;53.850;10.662;2023-05-10T14:32:45;8.05;;;6.93;;
64932;SDS011;51446;53.850;10.662;2023-05-10T14:35:10;8.73;;;6.53;;
64932;SDS011;51446;53.850;10.662;2023-05-10T14:37:35;8.07;;;6.70;;
64932;SDS011;51446;53.850;10.662;2023-05-10T14:40:01;10.63;;;6.03;;
64932;SDS011;51446;53.850;10.662;2023-05-10T14:42:27;7.82;;;5.80;;
64932;SDS011;51446;53.850;10.662;2023-05-10T14:44:53;7.82;;;6.60;;
64932;SDS011;51446;53.850;10.662;2023-05-10T14:47:18;7.43;;;6.30;;
64932;SDS011;51446;53.850;10.662;2023-05-10T14:49:43;7.90;;;6.40;;
64932;SDS011;51446;53.850;10.662;2023-05-10T14:52:09;6.67;;;5.97;;